AirBox status report


ProjectDeploymentNumber of DevicesDetailAvg. TemperatureAvg. HumidityAvg. PM2.5Version
1 Edimax Edimax AirBox (Taipei, 2016) [6.45% (10/155)] [HTML] [JSON] [Dataset A]27.37℃ 94.3% 6.4 μg/m3 2019-07-22T18:10:43Z
2 Edimax Edimax AirBox (New Taipei, 2016) [22.15% (66/298)] [HTML] [JSON] [Dataset B]26.8℃ 95.88% 7.5 μg/m3 2019-07-22T18:10:44Z
3 Edimax Edimax AirBox (Taoyuan, 2017) [27.23% (64/235)] [HTML] [JSON] [Dataset A]27.1℃ 92.45% 7.39 μg/m3 2019-07-22T18:10:44Z
4 Edimax Edimax AirBox (Taichung, 2016) [74.57% (173/232)] [HTML] [JSON] [Dataset B]27.6℃ 91.14% 6.7 μg/m3 2019-07-22T18:10:44Z
5 Edimax Edimax AirBox (Tainan, 2016) [44.86% (96/214)] [HTML] [JSON] [Dataset B]27.06℃ 95.76% 6.4 μg/m3 2019-07-22T18:10:44Z
6 Edimax Edimax AirBox (Kaohsiung, 2016) [23.97% (58/242)] [HTML] [JSON] [Dataset B]27.59℃ 96.48% 8.38 μg/m3 2019-07-22T18:10:44Z
7 Edimax Edimax AirBox (Korea) 100% (1135/1135) [HTML] [JSON] [Dataset Z]26.38℃ 92.01% 27.49 μg/m3 2019-07-22T18:10:47Z
8 Edimax Edimax AirBox (LASS) [11.56% (23/199)] [HTML] [JSON] [Dataset A]25.44℃ 69.74% 11.74 μg/m3 2019-07-22T18:10:47Z
9 Edimax Edimax AirBox (TaichungZero) [45.95% (68/148)] [HTML] [JSON] [Dataset A]26.55℃ 91.87% 7.91 μg/m3 2019-07-22T18:10:47Z
10 Edimax Edimax AirBox (TaoyuanFirst) [48.15% (13/27)] [HTML] [JSON] [Dataset A]27℃ 95% 9.38 μg/m3 2019-07-22T18:10:47Z
11 Edimax Edimax AirBox (THU USR) 16.25% (13/80) [HTML] [JSON] [Dataset A]25.9℃ 82.46% 9.15 μg/m3 2019-07-22T18:10:47Z
12 Edimax Edimax AirBox (other) 100% (1111/1111) [HTML] [JSON] [Dataset A]24.25℃ 100% 3 μg/m3 2019-07-22T18:10:47Z
13 Civil IoT Taiwan Civil IoT Taiwan (Hsinchu, 2017) [51.11% (23/45)] [HTML] [JSON] [Dataset A]26.88℃ 93.61% 6.3 μg/m3 2019-07-22T18:10:44Z
14 Civil IoT Taiwan Civil IoT Taiwan (Yunlin, 2017) [31.61% (61/193)] [HTML] [JSON] [Dataset A]27.06℃ 93.67% 7.03 μg/m3 2019-07-22T18:10:44Z
15 Civil IoT Taiwan Civil IoT Taiwan (Chiayi, 2017) [50% (22/44)] [HTML] [JSON] [Dataset A]27.74℃ 95.14% 3.05 μg/m3 2019-07-22T18:10:44Z
16 Civil IoT Taiwan Civil IoT Taiwan (Chiayi County, 2017) [31.97% (47/147)] [HTML] [JSON] [Dataset A]26.52℃ 94.98% 3.36 μg/m3 2019-07-22T18:10:44Z
17 Civil IoT Taiwan Civil IoT Taiwan (Kinmen, 2017) [12.5% (3/24)] [HTML] [JSON] [Dataset A]26.25℃ 100% 6.33 μg/m3 2019-07-22T18:10:44Z
18 Civil IoT Taiwan Civil IoT Taiwan (Backup, 2017) 6.38% (3/47) [HTML] [JSON] [Dataset A]27.37℃ 84.33% 3 μg/m3 2019-07-22T18:10:45Z
19 Civil IoT Taiwan Civil IoT Taiwan (Hsinchu County, 2018) [52.1% (62/119)] [HTML] [JSON] [Dataset A]25.3℃ 85.73% 4.4 μg/m3 2019-07-22T18:10:45Z
20 Civil IoT Taiwan Civil IoT Taiwan (Yilan, 2018) [46.73% (50/107)] [HTML] [JSON] [Dataset A]27.6℃ 83.2% 7.8 μg/m3 2019-07-22T18:10:45Z
21 Civil IoT Taiwan Civil IoT Taiwan (Hualien, 2018) [25.4% (32/126)] [HTML] [JSON] [Dataset A]27.87℃ 82.31% 1.78 μg/m3 2019-07-22T18:10:45Z
22 Civil IoT Taiwan Civil IoT Taiwan (Pingtung, 2018) [40.43% (93/230)] [HTML] [JSON] [Dataset A]26.2℃ 92.69% 6.44 μg/m3 2019-07-22T18:10:45Z
23 Civil IoT Taiwan Civil IoT Taiwan (Penghu, 2018) [23.53% (12/51)] [HTML] [JSON] [Dataset A]23.8℃ 89.75% 4.25 μg/m3 2019-07-22T18:10:45Z
24 Civil IoT Taiwan Civil IoT Taiwan (Keelung, 2018) [21.43% (12/56)] [HTML] [JSON] [Dataset A]26.58℃ 82.67% 12.08 μg/m3 2019-07-22T18:10:45Z
25 Civil IoT Taiwan Civil IoT Taiwan (Taitung, 2018) [38.14% (45/118)] [HTML] [JSON] [Dataset A]26.78℃ 87.87% 2.36 μg/m3 2019-07-22T18:10:46Z
26 Civil IoT Taiwan Civil IoT Taiwan (Miaoli, 2018) [58.39% (87/149)] [HTML] [JSON] [Dataset A]25.11℃ 90.83% 7.77 μg/m3 2019-07-22T18:10:46Z
27 Civil IoT Taiwan Civil IoT Taiwan (Matsu, 2018) [12.5% (1/8)] [HTML] [JSON] [Dataset A]25.62℃ 100% 6 μg/m3 2019-07-22T18:10:46Z
28 Civil IoT Taiwan Civil IoT Taiwan (Kaohsiung, 2018) [65.77% (221/336)] [HTML] [JSON] [Dataset A]25.94℃ 83.8% 8.24 μg/m3 2019-07-22T18:10:46Z
29 Civil IoT Taiwan Civil IoT Taiwan (NewTaipei, 2018) [47.99% (155/323)] [HTML] [JSON] [Dataset A]26.3℃ 86.47% 9.88 μg/m3 2019-07-22T18:10:46Z
30 Civil IoT Taiwan Civil IoT Taiwan (Taipei, 2018) 39.2% (78/199) [HTML] [JSON] [Dataset A]26.3℃ 79.64% 8.96 μg/m3 2019-07-22T18:10:47Z
31 Civil IoT Taiwan Civil IoT Taiwan (Backup, 2018) 6.25% (4/64) [HTML] [JSON] [Dataset A]25.59℃ 83.25% 5 μg/m3 2019-07-22T18:10:47Z
32 Edimax LASS AirBox (EPA, 2019) 0% (0/39) [HTML] [JSON] [Dataset A]0℃ 0% 0 μg/m3 2019-04-08T08:02:51Z
33 Edimax LASS AirBox (HualienEducational, 2018) [29.63% (8/27)] [HTML] [JSON] [Dataset A]22.53℃ 80% 9.5 μg/m3 2019-07-22T18:10:47Z
34 LASS LASS (LASS FT) 100% (70/70) [HTML] [JSON] [Dataset C]25.33℃ 65.02% 7.94 μg/m3 2019-07-22T18:10:47Z
35 LASS LASS (LASS4U) 100% (49/49) [HTML] [JSON] [Dataset D]27.76℃ 73.61% 4.53 μg/m3 2019-07-22T18:10:47Z
36 MAPS MAPS (WiFi) [2.3% (2/87)] [HTML] [JSON] [Dataset E]0℃ 0% 1 μg/m3 2019-07-22T18:10:47Z
37 MAPS MAPS (RESCUE_TW) [9.38% (3/32)] [HTML] [JSON] [Dataset K]26.37℃ 67.9% 5.67 μg/m3 2019-07-22T18:10:47Z
38 MAPS MAPS (RESCUE_TWKH) [20% (4/20)] [HTML] [JSON] [Dataset K]31.28℃ 52.03% 4.5 μg/m3 2019-07-22T18:10:47Z
39 MAPS MAPS (other) 100% (3/3) [HTML] [JSON] [Dataset E]0℃ 0% 0 μg/m3 2019-07-22T18:10:47Z
40 PiM25 PiM25 N/A (0/0) [HTML] [JSON] [Dataset N]0℃ 0% 0 μg/m3 2019-07-22T18:10:48Z
41 ASLUNG ASLUNG 100% (1/1) [HTML] [JSON] [Dataset F]26℃ 57% 1 μg/m3 2019-07-22T18:10:47Z
42 AirQ *AirQ 100% (184/184) [HTML] [JSON] [Dataset J]0℃ 0% 4.2 μg/m3 2019-07-22T18:10:47Z
43 AirU *AirU 100% (613/613) [HTML] [JSON] [Dataset L]0℃ 0% 19.26 μg/m3 2019-07-22T18:10:47Z
44 ITRI_PM25 ITRI_PM25 100% (55/55) [HTML] [JSON] [Dataset M]0℃ 0% 5.42 μg/m3 2019-07-22T18:10:47Z
45 Asus *Asus AirBox 100% (30/30) [HTML] [JSON] [Dataset G]28.39℃ 76.99% 4.86 μg/m3 2019-07-22T18:10:47Z
46 Indie *gov Indie N/A (0/0) [HTML] [JSON] [Dataset H]0℃ 0% 0 μg/m3 2019-07-22T18:10:47Z
47 ProbeCube *ProbeCube 100% (2/2) [HTML] [JSON] [Dataset I]30.15℃ 74.55% 0 μg/m3 2019-07-22T18:10:47Z
48 DustBoy *DustBoy 100% (45/45) [HTML] [JSON] [Dataset O]29.61℃ 81.93% 5.72 μg/m3 2019-07-22T18:10:48Z
49 Total 63.61% (4910/7719)

Resource:

Note: